Time;durP1;ratioP1;P1;durP2;ratioP2;P2;SDS_P1;SDS_P2;PMS_P1;PMS_P2;Temp;Humidity;BMP_temperature;BMP_pressure;BME280_temperature;BME280_humidity;BME280_pressure;Samples;Min_cycle;Max_cycle;Signal;HPM_P1;HPM_P2
2021/05/10 00:02:06;;;;;;;1.50;1.40;;;17.60;52.80;;;19.89;100.00;99481.06;5005906;28;21057;-63
2021/05/10 00:05:17;;;;;;;3.47;1.75;;;17.60;52.90;;;20.02;100.00;99482.69;5006888;28;20797;-62
2021/05/10 00:08:28;;;;;;;3.53;1.40;;;17.50;52.80;;;20.03;100.00;99487.84;5007019;28;20540;-63
2021/05/10 00:11:39;;;;;;;2.63;1.48;;;17.50;52.70;;;19.96;100.00;99480.91;5007207;28;20506;-63
2021/05/10 00:14:52;;;;;;;2.05;1.50;;;17.60;52.70;;;19.73;100.00;99477.16;5007591;28;20855;-63
2021/05/10 00:18:03;;;;;;;2.58;1.40;;;17.50;52.80;;;19.83;100.00;99483.88;5007579;28;20230;-63
2021/05/10 00:21:15;;;;;;;2.50;1.38;;;17.50;53.00;;;19.67;100.00;99480.81;5001216;28;20486;-63
2021/05/10 00:24:26;;;;;;;1.98;1.40;;;17.40;53.00;;;19.69;100.00;99475.16;5007241;28;20689;-63
2021/05/10 00:27:38;;;;;;;1.40;1.30;;;17.30;53.10;;;19.56;100.00;99478.09;5007324;28;20645;-62
2021/05/10 00:30:51;;;;;;;5.82;1.10;;;17.30;53.30;;;19.62;100.00;99478.00;5007383;28;20419;-63
2021/05/10 00:34:02;;;;;;;2.67;1.30;;;17.20;53.40;;;19.54;100.00;99480.22;5008149;28;20225;-63
2021/05/10 00:37:13;;;;;;;1.52;1.30;;;17.20;53.50;;;19.45;100.00;99482.44;5007929;28;20227;-63
2021/05/10 00:40:26;;;;;;;2.13;1.45;;;17.10;53.60;;;19.48;100.00;99484.69;5007551;28;20392;-62
2021/05/10 00:43:46;;;;;;;4.40;1.40;;;17.00;53.80;;;19.38;100.00;99479.84;5007273;28;20272;-62
2021/05/10 00:47:00;;;;;;;5.32;1.40;;;17.00;53.90;;;19.33;100.00;99476.19;5006096;28;20248;-63
2021/05/10 00:50:18;;;;;;;2.47;1.67;;;16.90;53.90;;;19.16;100.00;99473.34;5001688;28;20350;-63
2021/05/10 00:53:29;;;;;;;1.80;1.40;;;16.90;54.10;;;19.37;100.00;99471.94;5006957;28;20553;-63
2021/05/10 00:56:41;;;;;;;3.35;1.23;;;16.80;54.20;;;19.37;100.00;99482.78;5006448;28;20575;-63
2021/05/10 01:00:29;;;;;;;1.85;1.55;;;16.90;54.10;;;19.41;100.00;99475.03;5005974;28;20371;-62
2021/05/10 01:03:41;;;;;;;3.80;1.17;;;16.90;54.00;;;19.28;100.00;99471.47;4985382;28;20246;-63
2021/05/10 01:06:53;;;;;;;2.47;1.25;;;16.90;54.00;;;19.38;100.00;99471.72;4977701;28;20226;-63
2021/05/10 01:14:42;;;;;;;3.47;1.35;;;16.80;54.10;;;19.06;100.00;99464.94;4924257;28;20664;-63
2021/05/10 01:18:11;;;;;;;2.55;1.30;;;16.80;54.20;;;19.25;100.00;99466.50;4834024;28;20580;-63
2021/05/10 01:22:11;;;;;;;2.40;1.42;;;16.70;54.30;;;18.93;100.00;99468.69;4919769;28;20857;-63
2021/05/10 01:25:34;;;;;;;2.38;1.30;;;16.60;54.50;;;18.99;100.00;99470.47;4865245;29;20588;-63
2021/05/10 01:28:45;;;;;;;2.25;1.30;;;16.60;54.70;;;18.75;100.00;99463.34;4880201;28;20387;-62
2021/05/10 01:31:57;;;;;;;1.88;1.25;;;16.50;54.90;;;18.81;100.00;99458.84;4924996;28;20747;-63
2021/05/10 01:42:13;;;;;;;2.92;1.58;;;16.30;55.40;;;18.61;100.00;99446.44;5007482;28;20660;-63
2021/05/10 01:49:04;;;;;;;3.67;1.88;;;16.20;55.70;;;18.41;100.00;99445.88;4998294;28;24016;-63
2021/05/10 01:52:17;;;;;;;2.25;1.40;;;16.10;55.80;;;18.43;100.00;99442.91;4985104;28;20277;-63
2021/05/10 01:55:30;;;;;;;4.60;1.50;;;16.00;55.90;;;18.36;100.00;99440.31;4994904;28;20636;-63
2021/05/10 01:58:42;;;;;;;2.55;1.20;;;16.00;56.30;;;18.21;100.00;99439.88;5004631;28;22068;-63
2021/05/10 02:01:53;;;;;;;1.95;1.38;;;15.90;56.40;;;18.37;100.00;99444.66;5006105;28;20570;-63
2021/05/10 02:05:45;;;;;;;2.47;1.48;;;15.80;56.50;;;18.27;100.00;99441.69;5005499;28;20495;-63
2021/05/10 02:08:56;;;;;;;1.58;1.15;;;15.80;56.70;;;18.14;100.00;99436.44;4940507;28;20271;-63
2021/05/10 02:12:07;;;;;;;2.13;1.30;;;15.80;56.90;;;18.07;100.00;99431.09;4940318;28;29245;-62
2021/05/10 02:18:49;;;;;;;2.20;1.50;;;15.60;57.30;;;18.08;100.00;99430.03;5007735;28;20518;-63
2021/05/10 02:30:14;;;;;;;2.20;1.50;;;15.30;57.90;;;17.51;100.00;99409.66;4971959;28;20998;-63
2021/05/10 02:37:34;;;;;;;1.42;1.27;;;15.10;58.70;;;16.86;100.00;99410.03;4939347;28;20380;-62
2021/05/10 02:44:36;;;;;;;5.43;1.57;;;14.70;59.90;;;16.69;100.00;99406.22;4992185;28;45646;-61
2021/05/10 02:51:57;;;;;;;3.67;1.75;;;14.40;61.40;;;16.36;100.00;99405.56;4859585;28;46602;-63
2021/05/10 02:55:20;;;;;;;1.80;1.52;;;14.30;63.00;;;16.28;100.00;99403.97;4889636;28;55215;-63
2021/05/10 02:58:55;;;;;;;2.03;1.60;;;14.20;62.90;;;16.32;100.00;99409.78;4969150;28;50852;-62
2021/05/10 03:06:29;;;;;;;3.03;1.50;;;13.90;64.40;;;16.09;100.00;99418.38;4912780;28;45059;-61
2021/05/10 03:09:40;;;;;;;1.67;1.40;;;13.80;65.20;;;15.77;100.00;99423.72;4842505;29;46719;-63
2021/05/10 03:13:27;;;;;;;2.07;1.60;;;13.70;66.20;;;15.61;100.00;99417.94;4838552;29;52478;-62
2021/05/10 03:24:46;;;;;;;3.00;1.70;;;13.30;69.00;;;14.73;100.00;99425.44;4953833;28;42898;-62
2021/05/10 03:39:48;;;;;;;2.43;1.80;;;12.80;75.50;;;14.54;100.00;99415.50;4974827;28;53583;-62
2021/05/10 03:43:28;;;;;;;3.40;2.00;;;12.60;77.40;;;14.43;100.00;99424.16;4917550;28;61240;-63
2021/05/10 03:46:39;;;;;;;4.90;1.87;;;12.50;79.20;;;14.45;100.00;99422.09;4982254;28;54431;-62
2021/05/10 03:49:50;;;;;;;2.97;2.17;;;12.50;81.00;;;14.55;100.00;99431.44;4979382;28;55926;-63
2021/05/10 03:53:02;;;;;;;7.70;2.50;;;12.40;82.70;;;14.48;100.00;99422.50;4982046;28;58008;-62
2021/05/10 03:56:39;;;;;;;4.63;2.27;;;12.30;84.50;;;14.64;100.00;99421.28;4985293;28;54520;-62
2021/05/10 03:59:50;;;;;;;7.13;2.90;;;12.30;86.30;;;14.65;100.00;99417.56;4982719;28;45539;-61
2021/05/10 04:03:15;;;;;;;5.40;3.00;;;12.30;88.50;;;14.55;100.00;99425.22;4973620;28;61961;-61
2021/05/10 04:21:26;;;;;;;5.30;2.73;;;12.30;91.80;;;15.17;100.00;99424.84;4908480;28;64539;-62
2021/05/10 04:25:01;;;;;;;9.13;3.03;;;12.40;91.70;;;15.65;100.00;99425.41;4914210;28;64572;-62
2021/05/10 04:28:25;;;;;;;4.87;2.73;;;12.50;91.90;;;16.20;100.00;99424.97;4910012;28;59088;-62
2021/05/10 04:39:43;;;;;;;7.33;3.33;;;13.00;91.80;;;16.75;100.00;99423.44;4972273;28;56433;-62
2021/05/10 04:42:54;;;;;;;3.10;1.97;;;13.20;91.30;;;17.45;100.00;99411.38;4957666;28;55484;-62
2021/05/10 04:46:11;;;;;;;4.40;2.07;;;13.50;90.30;;;17.72;100.00;99428.19;4975509;28;59332;-61
2021/05/10 04:49:24;;;;;;;3.10;2.03;;;13.80;88.70;;;17.84;100.00;99428.25;4967197;28;58186;-62
2021/05/10 05:04:34;;;;;;;2.97;1.73;;;15.20;77.00;;;19.31;100.00;99441.16;4983761;28;57876;-63
2021/05/10 05:08:09;;;;;;;2.47;1.90;;;15.60;75.20;;;19.22;100.00;99436.31;4984142;28;44683;-62
2021/05/10 05:11:30;;;;;;;1.88;1.67;;;16.00;73.00;;;19.74;100.00;99434.56;4965828;28;45519;-63
2021/05/10 05:18:32;;;;;;;2.92;1.80;;;16.60;68.30;;;19.97;100.00;99442.66;4955623;28;45056;-63
2021/05/10 05:25:26;;;;;;;3.25;1.70;;;17.20;62.30;;;20.56;100.00;99447.91;4979379;28;47276;-63
2021/05/10 05:28:50;;;;;;;4.75;1.52;;;17.40;60.20;;;20.14;100.00;99448.19;4989709;28;39733;-62
2021/05/10 05:35:26;;;;;;;1.85;1.38;;;17.90;56.90;;;20.09;100.00;99451.59;4992517;28;45924;-63
2021/05/10 05:38:44;;;;;;;2.42;1.55;;;18.10;55.80;;;20.07;100.00;99442.03;4992279;28;37084;-62
2021/05/10 05:41:56;;;;;;;3.13;1.58;;;18.30;54.90;;;20.55;100.00;99454.44;4994016;28;41280;-63
2021/05/10 05:45:16;;;;;;;7.72;1.77;;;18.40;54.70;;;20.68;100.00;99451.41;4986167;28;45212;-63
2021/05/10 05:48:29;;;;;;;2.83;1.58;;;18.60;54.20;;;20.49;100.00;99453.50;4994806;28;35060;-63
2021/05/10 05:55:47;;;;;;;6.80;1.70;;;18.90;52.20;;;20.73;100.00;99451.50;4934684;28;29324;-63
2021/05/10 05:59:04;;;;;;;2.10;1.55;;;19.10;52.20;;;20.69;100.00;99444.91;5002773;28;24747;-62
2021/05/10 06:02:15;;;;;;;3.28;1.88;;;19.20;50.70;;;20.63;100.00;99464.91;4993730;28;50652;-62
2021/05/10 06:05:47;;;;;;;3.40;1.73;;;19.30;50.20;;;20.68;100.00;99459.56;4995290;28;33802;-63
2021/05/10 06:20:29;;;;;;;3.92;1.48;;;19.60;49.70;;;21.03;100.00;99462.09;4964751;28;29812;-63
2021/05/10 06:34:50;;;;;;;1.67;1.42;;;20.20;48.50;;;21.39;100.00;99475.22;4981363;28;30705;-62
2021/05/10 06:38:01;;;;;;;2.47;1.90;;;20.30;47.70;;;21.22;100.00;99474.44;4991905;28;39987;-62
2021/05/10 06:44:58;;;;;;;2.28;1.55;;;20.40;47.20;;;21.37;100.00;99471.13;4988645;28;25159;-63
2021/05/10 06:48:33;;;;;;;3.95;1.65;;;20.60;46.80;;;21.93;100.00;99469.22;4994542;28;35262;-62
2021/05/10 06:51:45;;;;;;;7.40;1.85;;;20.70;46.80;;;21.73;100.00;99476.03;5000067;28;28773;-62
2021/05/10 06:58:43;;;;;;;1.85;1.55;;;21.00;46.20;;;22.07;100.00;99460.47;4974827;28;29198;-63
2021/05/10 07:06:27;;;;;;;4.50;1.77;;;21.50;45.60;;;22.44;99.72;99470.72;5000748;28;20218;-62
2021/05/10 07:10:26;;;;;;;2.50;1.60;;;21.70;45.10;;;22.75;98.74;99458.25;4936608;28;20430;-63
2021/05/10 07:21:05;;;;;;;2.08;1.30;;;22.50;44.10;;;22.69;100.00;99457.34;4884158;28;21381;-62
2021/05/10 07:24:23;;;;;;;3.38;1.60;;;22.70;43.20;;;22.96;98.91;99456.56;4899777;28;20258;-62
2021/05/10 07:27:34;;;;;;;2.20;1.63;;;22.90;43.10;;;23.03;98.86;99449.78;4900097;28;20499;-61
2021/05/10 07:30:57;;;;;;;5.80;1.50;;;23.10;42.60;;;23.12;100.00;99455.63;4970140;28;20237;-62
2021/05/10 07:34:09;;;;;;;3.55;1.40;;;23.10;42.70;;;22.70;100.00;99459.00;5004741;28;20245;-62
2021/05/10 07:37:41;;;;;;;2.42;1.83;;;23.10;42.40;;;23.38;97.52;99459.34;5000353;28;20467;-63
2021/05/10 07:41:04;;;;;;;3.05;1.60;;;23.20;43.00;;;23.21;99.80;99454.06;5003735;28;20230;-62
2021/05/10 08:02:53;;;;;;;3.50;1.77;;;24.30;41.40;;;23.60;95.69;99469.13;4997860;28;20716;-63
2021/05/10 08:06:32;;;;;;;3.30;1.60;;;24.40;41.00;;;23.72;100.00;99459.91;5004428;28;20708;-63
2021/05/10 08:13:40;;;;;;;4.85;1.80;;;24.30;41.20;;;24.33;99.25;99458.31;4905015;28;20230;-61
2021/05/10 08:16:52;;;;;;;3.53;1.55;;;24.40;41.20;;;23.72;97.49;99452.53;4998772;28;20621;-63
2021/05/10 08:20:03;;;;;;;2.42;1.50;;;24.50;40.40;;;23.88;100.00;99443.31;5003191;28;20240;-63
2021/05/10 08:23:16;;;;;;;3.85;1.60;;;24.50;40.50;;;24.06;99.39;99447.50;4997901;28;20363;-63
2021/05/10 08:26:39;;;;;;;3.20;1.77;;;24.50;40.70;;;23.89;99.21;99442.22;5002579;28;20230;-63
2021/05/10 08:33:13;;;;;;;4.18;1.40;;;24.70;40.00;;;24.08;100.00;99441.78;4984418;28;20639;-63
2021/05/10 08:36:24;;;;;;;3.63;1.40;;;24.50;40.70;;;23.70;100.00;99440.22;5000477;28;20621;-63
2021/05/10 08:39:57;;;;;;;3.78;1.55;;;24.60;40.80;;;24.03;100.00;99441.75;4989832;28;20444;-63
2021/05/10 08:43:10;;;;;;;3.13;1.40;;;24.50;40.90;;;24.15;100.00;99454.09;4999695;28;20476;-62
2021/05/10 08:49:53;;;;;;;3.28;1.33;;;24.60;40.70;;;24.63;99.06;99446.63;4970658;28;20532;-63
2021/05/10 08:53:05;;;;;;;3.83;1.77;;;24.80;40.80;;;24.95;95.21;99460.13;5000732;28;20417;-62
2021/05/10 08:56:18;;;;;;;3.47;1.55;;;24.80;40.90;;;24.96;95.16;99450.84;5003747;28;20558;-63
2021/05/10 08:59:29;;;;;;;3.00;1.60;;;25.10;40.40;;;25.15;93.23;99454.66;4990281;28;20257;-63
2021/05/10 09:02:55;;;;;;;5.22;1.80;;;25.30;40.20;;;24.84;93.63;99463.91;4995840;28;20442;-63
2021/05/10 09:06:12;;;;;;;4.15;1.63;;;25.40;39.60;;;25.77;92.99;99459.81;4984999;28;20595;-63
2021/05/10 09:09:31;;;;;;;8.38;2.30;;;25.50;40.10;;;25.89;90.66;99456.78;4997541;28;20260;-63
2021/05/10 09:12:57;;;;;;;4.72;1.73;;;25.70;40.00;;;25.95;87.06;99457.59;4984835;28;20877;-63
2021/05/10 09:16:19;;;;;;;3.08;1.50;;;25.90;39.50;;;25.76;92.76;99436.25;5004593;28;20246;-62
2021/05/10 09:19:42;;;;;;;6.38;1.77;;;26.20;39.20;;;26.34;89.97;99428.38;5019399;28;20597;-63
2021/05/10 09:22:59;;;;;;;2.92;1.67;;;26.40;39.10;;;27.38;85.93;99439.22;5007257;28;20226;-62
2021/05/10 09:26:13;;;;;;;1.83;1.38;;;26.50;39.30;;;27.22;84.49;99455.00;5007768;28;20612;-63
2021/05/10 09:29:31;;;;;;;2.97;1.80;;;26.90;39.20;;;25.65;90.61;99451.09;4998598;28;20611;-63
2021/05/10 09:36:18;;;;;;;2.10;1.50;;;27.10;38.30;;;27.10;84.88;99454.53;5005904;28;20370;-64
2021/05/10 09:43:29;;;;;;;3.10;1.88;;;27.30;37.90;;;26.86;84.09;99448.09;5000909;28;20911;-63
2021/05/10 09:46:47;;;;;;;5.25;1.60;;;27.50;37.20;;;27.06;85.35;99445.25;5006987;28;20380;-63
2021/05/10 09:50:16;;;;;;;3.22;1.52;;;27.40;37.50;;;27.29;81.69;99458.25;5007214;28;20218;-62
2021/05/10 09:53:29;;;;;;;3.53;2.80;;;27.40;38.00;;;27.91;82.58;99450.25;5006356;28;20560;-63
2021/05/10 09:56:53;;;;;;;2.22;1.40;;;27.50;38.20;;;27.70;82.56;99439.44;4975806;28;20498;-63
2021/05/10 10:00:20;;;;;;;3.33;1.45;;;27.80;37.80;;;27.18;84.28;99435.53;5001150;28;20420;-63
2021/05/10 10:03:54;;;;;;;2.08;1.42;;;28.00;37.10;;;27.12;82.79;99430.38;5000699;28;20738;-63
2021/05/10 10:07:07;;;;;;;2.90;1.70;;;28.00;36.70;;;27.23;81.43;99428.34;4994078;28;20230;-62
2021/05/10 10:10:19;;;;;;;3.25;1.67;;;28.10;36.60;;;28.24;76.43;99438.31;5023895;28;20522;-63
2021/05/10 10:17:18;;;;;;;2.55;1.60;;;28.60;36.30;;;28.42;71.78;99443.03;4979982;28;20230;-63
2021/05/10 10:20:36;;;;;;;4.15;1.67;;;28.80;35.80;;;28.32;71.61;99434.88;5005876;28;20475;-63
2021/05/10 10:23:49;;;;;;;2.50;1.35;;;29.10;35.40;;;29.16;72.01;99435.06;4999781;28;20231;-63
2021/05/10 10:27:20;;;;;;;3.40;1.45;;;29.50;35.30;;;29.49;70.32;99425.69;4994688;28;20475;-62
2021/05/10 10:30:42;;;;;;;2.53;1.42;;;29.80;35.40;;;29.06;69.05;99429.69;4996956;28;20462;-64
2021/05/10 10:34:13;;;;;;;2.08;1.42;;;30.20;34.50;;;28.46;75.34;99415.72;5001269;28;20229;-63
2021/05/10 10:37:44;;;;;;;4.63;1.60;;;30.40;34.40;;;28.54;77.21;99410.41;4909253;28;20566;-62
2021/05/10 10:41:27;;;;;;;4.15;1.55;;;30.50;34.20;;;29.19;75.05;99412.41;4898078;28;20652;-64
2021/05/10 10:44:53;;;;;;;2.50;1.60;;;30.60;34.40;;;30.05;67.39;99418.28;4915723;28;20504;-64
2021/05/10 10:48:23;;;;;;;2.85;1.55;;;30.80;34.30;;;30.09;68.92;99400.00;4964990;28;20547;-63
2021/05/10 10:51:35;;;;;;;2.50;1.70;;;31.00;34.00;;;29.16;74.05;99405.59;4989870;28;20714;-63
2021/05/10 10:54:49;;;;;;;1.90;1.40;;;31.30;33.40;;;29.00;74.56;99415.22;4983210;28;20655;-63
2021/05/10 10:58:20;;;;;;;5.03;2.05;;;31.30;32.80;;;29.50;77.92;99404.47;4988604;28;20226;-63
2021/05/10 11:01:40;;;;;;;8.27;1.50;;;31.30;33.30;;;29.57;72.23;99402.94;4989619;28;20649;-64
2021/05/10 11:04:52;;;;;;;3.10;1.40;;;31.30;33.10;;;29.43;74.02;99393.00;4977518;28;20690;-64
2021/05/10 11:08:33;;;;;;;4.07;1.80;;;31.60;33.00;;;29.72;68.50;99379.75;4991552;28;21422;-64
2021/05/10 11:12:30;;;;;;;4.57;1.33;;;31.80;33.00;;;29.29;75.24;99380.00;4912260;28;20245;-64
2021/05/10 11:16:09;;;;;;;3.03;1.55;;;32.10;32.30;;;29.27;75.36;99371.22;4905628;28;20768;-64
2021/05/10 11:19:26;;;;;;;3.22;1.52;;;32.10;32.10;;;29.86;75.01;99377.81;4920380;28;20698;-64
2021/05/10 11:23:03;;;;;;;5.93;1.73;;;32.00;32.40;;;29.87;74.94;99368.44;4956961;28;20242;-64
2021/05/10 11:34:40;;;;;;;3.28;1.80;;;32.50;31.60;;;29.83;73.34;99358.31;4889103;28;20505;-64
2021/05/10 11:41:47;;;;;;;4.97;1.50;;;32.70;31.80;;;29.43;77.87;99371.78;4946460;28;20801;-64
2021/05/10 11:49:04;;;;;;;2.67;1.55;;;32.50;32.50;;;30.75;69.71;99362.66;4975142;28;21049;-63
2021/05/10 11:52:17;;;;;;;2.22;1.45;;;32.60;32.10;;;29.95;73.84;99355.84;4906059;28;20229;-64
2021/05/10 11:59:45;;;;;;;2.95;1.52;;;33.00;31.60;;;30.16;72.52;99364.56;4866703;29;20538;-64
2021/05/10 12:02:58;;;;;;;5.07;1.50;;;33.00;31.10;;;30.99;68.16;99368.69;4929887;28;20237;-64
2021/05/10 12:06:09;;;;;;;1.90;1.40;;;33.00;31.50;;;30.46;68.42;99365.78;5004952;28;20734;-63
2021/05/10 12:09:28;;;;;;;5.38;1.30;;;33.20;31.00;;;31.25;68.16;99374.41;5001479;28;20519;-64
2021/05/10 12:12:57;;;;;;;4.50;1.63;;;33.40;31.20;;;31.65;63.22;99380.81;4998202;28;20262;-63
2021/05/10 12:16:12;;;;;;;2.22;1.23;;;33.70;30.60;;;31.45;65.50;99381.31;4998961;28;20218;-64
2021/05/10 12:19:36;;;;;;;3.03;1.88;;;34.00;30.20;;;31.58;57.32;99385.94;4986204;28;20304;-64
2021/05/10 12:22:49;;;;;;;2.92;1.50;;;34.00;29.70;;;32.00;55.35;99390.84;5004450;28;20540;-64
2021/05/10 12:26:01;;;;;;;6.68;1.80;;;34.00;29.90;;;32.16;55.79;99404.22;5002672;28;20250;-63
2021/05/10 12:29:12;;;;;;;5.40;1.50;;;33.90;30.00;;;31.78;57.60;99394.50;4995931;28;20222;-64
2021/05/10 12:32:24;;;;;;;3.75;1.30;;;34.00;30.30;;;32.60;50.19;99390.16;4994392;28;20252;-62
2021/05/10 12:43:02;;;;;;;1.55;1.02;;;34.60;29.00;;;32.43;47.38;99392.91;4998175;28;20738;-63
2021/05/10 12:46:20;;;;;;;2.00;1.40;;;34.50;28.60;;;32.62;49.39;99393.41;4989693;28;20540;-63
2021/05/10 12:49:47;;;;;;;4.25;1.45;;;34.40;28.50;;;32.44;51.31;99392.59;4991049;28;20560;-64
2021/05/10 12:53:11;;;;;;;3.78;1.38;;;34.40;28.50;;;32.58;51.14;99391.63;4993496;28;20456;-63
2021/05/10 12:56:35;;;;;;;3.53;1.60;;;34.30;29.00;;;32.88;47.88;99378.78;4991218;28;20547;-63
2021/05/10 13:00:13;;;;;;;1.50;1.38;;;34.30;29.00;;;33.40;45.24;99374.75;5004874;28;20844;-63
2021/05/10 13:07:21;;;;;;;1.60;1.15;;;34.80;28.90;;;33.21;46.50;99382.63;4999550;28;20238;-63
2021/05/10 13:10:49;;;;;;;1.58;1.38;;;34.90;28.70;;;32.64;47.98;99376.47;4981191;28;21035;-63
2021/05/10 13:14:11;;;;;;;2.75;1.42;;;34.90;28.50;;;33.26;48.48;99384.44;4988420;28;20213;-63
2021/05/10 13:17:42;;;;;;;3.03;1.35;;;34.80;28.90;;;32.58;49.63;99378.59;5002140;28;20285;-63
2021/05/10 13:31:40;;;;;;;2.58;1.40;;;34.40;29.00;;;33.31;49.04;99381.47;5003840;28;20323;-65
2021/05/10 13:35:17;;;;;;;3.08;1.33;;;34.50;29.30;;;33.15;48.52;99378.38;5003898;28;20257;-63
2021/05/10 13:38:47;;;;;;;2.70;1.40;;;34.60;29.10;;;33.48;49.24;99373.94;5003229;28;20670;-64
2021/05/10 13:42:08;;;;;;;2.03;1.40;;;34.70;29.10;;;33.76;49.04;99363.22;5018700;28;20268;-63
2021/05/10 13:45:20;;;;;;;1.98;1.50;;;34.80;29.40;;;32.85;47.42;99385.78;4998999;28;20667;-63
2021/05/10 13:48:32;;;;;;;3.40;1.63;;;35.00;28.70;;;32.77;49.55;99384.63;5002665;28;20560;-64
2021/05/10 13:51:44;;;;;;;2.05;1.33;;;34.80;28.70;;;33.41;48.17;99392.22;5003453;28;20484;-64
2021/05/10 13:54:56;;;;;;;3.25;1.50;;;34.70;28.90;;;32.64;52.33;99398.63;4998895;28;20416;-64
2021/05/10 13:58:08;;;;;;;2.28;1.10;;;34.80;28.80;;;32.61;53.32;99399.28;4995315;28;20260;-62
2021/05/10 14:01:33;;;;;;;3.28;1.40;;;34.80;28.90;;;32.29;54.11;99412.41;5001467;28;20574;-63
2021/05/10 14:04:44;;;;;;;2.08;1.60;;;34.70;28.90;;;32.96;53.49;99416.75;5003076;28;20506;-63
2021/05/10 14:11:38;;;;;;;3.10;1.60;;;34.20;29.70;;;33.12;53.68;99426.19;4998510;28;20321;-63
2021/05/10 14:14:50;;;;;;;2.05;1.50;;;34.10;30.00;;;32.61;53.55;99441.63;4977996;28;21181;-63
2021/05/10 14:18:15;;;;;;;5.72;1.52;;;34.00;29.60;;;33.09;53.42;99424.06;4998602;28;20814;-64
2021/05/10 14:25:27;;;;;;;3.67;1.50;;;33.80;30.10;;;33.36;53.79;99445.91;4987354;28;20311;-63
2021/05/10 14:32:08;;;;;;;3.35;1.10;;;34.00;30.20;;;33.78;51.12;99437.78;4971430;28;20725;-63
2021/05/10 14:39:01;;;;;;;3.25;1.17;;;34.10;30.30;;;33.31;41.48;99437.75;4984924;28;20223;-64
2021/05/10 14:42:13;;;;;;;1.92;1.05;;;34.10;28.70;;;33.15;38.94;99440.19;4986642;28;20696;-63
2021/05/10 14:45:49;;;;;;;2.55;1.00;;;34.00;28.50;;;33.10;41.70;99440.38;4985670;28;20219;-63
2021/05/10 14:52:23;;;;;;;4.57;1.10;;;33.80;29.20;;;33.71;35.43;99437.47;4909179;28;20491;-63
2021/05/10 14:55:34;;;;;;;5.47;1.00;;;34.00;28.40;;;33.96;34.80;99427.44;4986180;28;20219;-63
2021/05/10 14:58:45;;;;;;;2.65;0.95;;;34.10;28.30;;;34.19;38.18;99431.56;4978694;28;20644;-64
2021/05/10 15:01:58;;;;;;;1.60;0.88;;;34.20;28.50;;;33.49;35.50;99433.00;4982602;28;20737;-63
2021/05/10 15:05:09;;;;;;;2.20;0.93;;;34.30;28.00;;;34.10;36.76;99434.41;4986518;28;20512;-64
2021/05/10 15:08:20;;;;;;;2.00;0.98;;;34.30;28.30;;;33.91;37.77;99439.53;4986631;28;20258;-62
2021/05/10 15:15:32;;;;;;;4.32;0.95;;;34.30;27.80;;;33.79;36.04;99436.66;4982144;28;20709;-62
2021/05/10 15:18:47;;;;;;;7.03;1.20;;;34.30;28.20;;;34.29;35.55;99425.66;4978055;28;20504;-62
2021/05/10 15:21:58;;;;;;;3.40;1.08;;;34.20;28.40;;;33.93;34.34;99423.38;4985546;28;20390;-63
2021/05/10 15:25:10;;;;;;;1.60;0.88;;;34.20;28.30;;;33.35;34.93;99430.41;4986548;28;20915;-63
2021/05/10 15:28:21;;;;;;;3.03;1.00;;;34.10;27.70;;;33.35;38.69;99433.19;5002273;28;20691;-63
2021/05/10 15:31:32;;;;;;;3.10;1.00;;;33.80;28.20;;;33.43;36.22;99431.53;4999376;28;20345;-61
2021/05/10 15:34:44;;;;;;;2.15;0.75;;;33.70;28.40;;;33.81;35.69;99437.97;5006453;28;20225;-62
2021/05/10 15:37:56;;;;;;;2.35;0.75;;;33.60;29.00;;;33.67;37.21;99442.88;5019767;28;20740;-62
2021/05/10 15:41:07;;;;;;;1.60;0.80;;;33.60;28.80;;;33.51;39.18;99439.00;5005208;28;20550;-62
2021/05/10 15:44:18;;;;;;;2.80;1.05;;;33.60;28.70;;;33.92;35.67;99430.06;5005123;28;20337;-63
2021/05/10 15:47:29;;;;;;;2.17;1.00;;;33.60;29.70;;;34.05;38.65;99434.59;5003093;28;20277;-64
2021/05/10 15:50:42;;;;;;;3.45;1.20;;;33.60;29.00;;;33.04;37.13;99438.88;5004880;28;20226;-62
2021/05/10 15:57:22;;;;;;;3.55;1.00;;;33.30;29.30;;;33.64;38.64;99443.53;5002320;28;20226;-62
2021/05/10 16:00:34;;;;;;;2.63;0.90;;;33.30;29.50;;;33.48;38.25;99443.25;5003722;28;20595;-62
2021/05/10 16:03:45;;;;;;;4.32;1.30;;;33.20;29.40;;;33.51;40.02;99448.13;5005546;28;20638;-61
2021/05/10 16:06:58;;;;;;;3.25;1.00;;;33.10;29.50;;;33.92;40.12;99446.72;4986678;28;20472;-62
2021/05/10 16:10:10;;;;;;;2.45;1.20;;;33.00;29.80;;;33.63;38.46;99455.75;5005283;28;20635;-62
2021/05/10 16:13:21;;;;;;;2.88;0.82;;;33.00;29.70;;;32.96;41.54;99461.06;5005386;28;20615;-62
2021/05/10 16:16:32;;;;;;;1.50;1.00;;;32.90;29.70;;;32.89;43.68;99456.00;5005253;28;20728;-62
2021/05/10 16:26:23;;;;;;;3.63;1.33;;;32.60;30.60;;;32.61;43.86;99449.94;5014978;28;20512;-63
2021/05/10 16:29:48;;;;;;;3.00;1.08;;;32.40;30.40;;;32.92;45.37;99452.59;4991293;28;20695;-63
2021/05/10 16:33:12;;;;;;;1.60;1.00;;;32.20;30.30;;;32.07;47.48;99445.72;4997954;28;20686;-63
2021/05/10 16:36:24;;;;;;;3.45;1.30;;;32.10;30.80;;;32.29;49.64;99450.34;5004593;28;20218;-63
2021/05/10 16:39:36;;;;;;;3.08;1.10;;;32.00;30.90;;;31.75;55.71;99455.19;5004451;28;21140;-62
2021/05/10 16:42:48;;;;;;;3.47;1.10;;;31.80;31.20;;;31.57;53.81;99468.06;5004575;28;20229;-63
2021/05/10 16:45:59;;;;;;;2.72;1.50;;;31.70;31.60;;;31.71;59.21;99466.06;5004406;28;20507;-63
2021/05/10 16:49:10;;;;;;;6.70;1.70;;;31.50;32.10;;;31.30;68.31;99473.75;5004511;28;20533;-63
2021/05/10 16:55:52;;;;;;;3.15;1.65;;;31.10;34.20;;;30.85;72.37;99478.41;5002464;28;20214;-63
2021/05/10 16:59:05;;;;;;;4.30;1.77;;;30.90;34.60;;;30.69;75.53;99478.75;4996407;28;20223;-62
2021/05/10 17:02:16;;;;;;;3.67;1.65;;;30.50;35.00;;;30.52;76.31;99486.84;5003977;28;20344;-62
2021/05/10 17:09:10;;;;;;;4.57;1.70;;;30.00;35.90;;;30.56;73.77;99481.53;5000456;28;20505;-62
2021/05/10 17:12:42;;;;;;;2.83;1.42;;;29.70;36.20;;;30.41;74.91;99481.84;4991392;28;20230;-63
2021/05/10 17:15:53;;;;;;;3.30;1.90;;;29.50;36.40;;;30.42;75.07;99488.97;4999168;28;20533;-62
2021/05/10 17:22:58;;;;;;;2.35;1.55;;;29.10;36.90;;;30.07;77.13;99490.53;4920279;28;20235;-61
2021/05/10 17:26:37;;;;;;;5.55;1.70;;;29.00;37.20;;;30.11;76.93;99489.63;4914804;28;20468;-62
2021/05/10 17:29:49;;;;;;;4.40;1.70;;;28.80;37.30;;;30.08;78.15;99494.91;4889107;28;20250;-62
2021/05/10 17:33:00;;;;;;;4.28;1.95;;;28.70;37.60;;;29.84;79.14;99492.31;4934082;28;20265;-62
2021/05/10 17:36:13;;;;;;;2.67;1.67;;;28.50;37.90;;;29.81;79.04;99492.91;5005026;28;20289;-63
2021/05/10 17:39:26;;;;;;;1.98;1.70;;;28.40;38.00;;;29.54;85.60;99497.28;5007095;28;20316;-64
2021/05/10 17:42:38;;;;;;;3.85;1.65;;;28.30;38.50;;;29.44;84.42;99497.41;5016097;28;20264;-63
2021/05/10 17:45:51;;;;;;;2.50;1.80;;;28.20;38.70;;;29.25;87.16;99493.88;5004877;28;20550;-62
2021/05/10 17:49:14;;;;;;;5.20;1.80;;;28.00;39.00;;;29.17;89.50;99502.81;4986631;28;20230;-63
2021/05/10 17:52:25;;;;;;;2.38;2.00;;;27.80;39.30;;;29.10;87.88;99503.19;5002998;28;20553;-62
2021/05/10 17:55:57;;;;;;;5.20;2.03;;;27.70;39.50;;;28.97;91.19;99509.44;5000636;28;20701;-64
2021/05/10 17:59:18;;;;;;;3.45;1.70;;;27.50;39.70;;;28.92;90.91;99513.09;5002567;28;20602;-64
2021/05/10 18:05:53;;;;;;;8.43;2.58;;;27.30;40.20;;;28.68;95.95;99512.31;5006758;28;20544;-63
2021/05/10 18:09:04;;;;;;;5.40;1.88;;;27.20;40.50;;;28.58;93.86;99518.75;5004870;28;20238;-63
2021/05/10 18:12:15;;;;;;;4.47;2.20;;;27.10;40.60;;;28.39;98.70;99517.91;5001362;28;20861;-63
2021/05/10 18:15:57;;;;;;;5.13;2.22;;;27.00;41.00;;;28.22;100.00;99510.13;5004577;28;20557;-63
2021/05/10 18:19:12;;;;;;;3.30;1.80;;;26.90;41.20;;;28.02;100.00;99515.00;4943046;28;20225;-63
2021/05/10 18:22:23;;;;;;;3.10;1.98;;;26.70;41.50;;;27.86;100.00;99512.41;5006821;28;20234;-62
2021/05/10 18:25:35;;;;;;;4.13;1.85;;;26.60;41.70;;;27.73;100.00;99515.00;5018066;28;20230;-63
2021/05/10 18:28:46;;;;;;;4.82;2.00;;;26.40;42.00;;;27.54;100.00;99501.97;4980892;28;20553;-63
2021/05/10 18:35:34;;;;;;;3.92;2.28;;;26.20;42.50;;;27.19;100.00;99513.25;4982720;28;20254;-62
2021/05/10 18:38:45;;;;;;;3.08;2.03;;;26.10;42.80;;;26.93;100.00;99514.53;4978294;28;21185;-62